Time;durP1;ratioP1;P1;durP2;ratioP2;P2;SDS_P1;SDS_P2;PMS_P1;PMS_P2;Temp;Humidity;BMP_temperature;BMP_pressure;BME280_temperature;BME280_humidity;BME280_pressure;Samples;Min_cycle;Max_cycle;Signal;HPM_P1;HPM_P2
2022/09/13 00:00:43;;;;;;;11.38;8.98;;;;;;;13.03;100.00;98871.23;1788657;80;20998;-77
2022/09/13 00:03:10;;;;;;;11.48;8.98;;;;;;;13.03;100.00;98867.19;1751729;81;20999;-76
2022/09/13 00:05:37;;;;;;;9.90;8.43;;;;;;;13.02;100.00;98862.87;1756444;81;20995;-79
2022/09/13 00:08:05;;;;;;;10.93;7.75;;;;;;;13.04;100.00;98867.42;1743997;81;21032;-78
2022/09/13 00:10:34;;;;;;;9.25;8.03;;;;;;;13.03;100.00;98867.19;1789437;79;21145;-77
2022/09/13 00:13:03;;;;;;;10.82;9.08;;;;;;;13.04;100.00;98863.95;1764578;80;21508;-78
2022/09/13 00:15:30;;;;;;;12.65;9.33;;;;;;;13.03;100.00;98865.03;1771716;80;21617;-77
2022/09/13 00:17:57;;;;;;;10.68;8.20;;;;;;;13.01;100.00;98869.35;1742993;80;21083;-78
2022/09/13 00:20:24;;;;;;;8.18;7.33;;;;;;;12.98;100.00;98861.84;1741801;82;21072;-77
2022/09/13 00:22:52;;;;;;;7.55;6.75;;;;;;;13.00;100.00;98859.64;1749457;80;21172;-77
2022/09/13 00:25:19;;;;;;;10.03;7.65;;;;;;;13.02;100.00;98864.22;1782239;79;20991;-74
2022/09/13 00:27:46;;;;;;;6.53;5.92;;;;;;;13.03;100.00;98861.79;1790792;79;20984;-75
2022/09/13 00:30:13;;;;;;;7.35;6.62;;;;;;;13.01;100.00;98865.84;1801216;79;21043;-73
2022/09/13 00:32:39;;;;;;;10.85;7.65;;;;;;;12.91;100.00;98857.30;1810750;79;21063;-74
2022/09/13 00:35:07;;;;;;;11.28;7.50;;;;;;;12.89;100.00;98864.90;1785382;79;21148;-73
2022/09/13 00:37:34;;;;;;;12.68;8.00;;;;;;;12.90;100.00;98861.66;1757461;80;20983;-75
2022/09/13 00:40:03;;;;;;;8.13;6.42;;;;;;;12.90;100.00;98861.66;1781368;80;21587;-74
2022/09/13 00:42:31;;;;;;;8.45;7.08;;;;;;;12.93;100.00;98863.23;1758094;80;21529;-74
2022/09/13 00:45:16;;;;;;;10.72;8.18;;;;;;;12.95;100.00;98864.31;1781564;80;21567;-74
2022/09/13 00:47:59;;;;;;;11.78;10.18;;;;;;;12.93;100.00;98861.88;1797557;79;21846;-74
2022/09/13 00:50:36;;;;;;;8.23;7.08;;;;;;;12.94;100.00;98861.34;1813464;79;21676;-75
2022/09/13 00:53:13;;;;;;;8.28;7.15;;;;;;;12.94;100.00;98863.50;1813634;79;20996;-74
2022/09/13 00:56:09;;;;;;;8.43;7.60;;;;;;;12.90;100.00;98863.01;1813549;79;21094;-74
2022/09/13 00:58:45;;;;;;;7.72;6.42;;;;;;;12.88;100.00;98865.17;1785294;79;21538;-75
2022/09/13 01:01:13;;;;;;;13.30;7.75;;;;;;;12.86;100.00;98860.05;1795131;79;21063;-75
2022/09/13 01:03:42;;;;;;;9.88;7.78;;;;;;;12.86;100.00;98864.10;1793764;79;20986;-74
2022/09/13 01:06:15;;;;;;;10.23;8.20;;;;;;;12.80;100.00;98857.70;1767986;81;21566;-75
2022/09/13 01:08:43;;;;;;;8.88;7.90;;;;;;;12.79;100.00;98859.59;1767902;81;20938;-73
2022/09/13 01:11:14;;;;;;;8.38;7.25;;;;;;;12.85;100.00;98859.01;1767784;81;21046;-71
2022/09/13 01:13:41;;;;;;;9.85;8.35;;;;;;;12.85;100.00;98861.17;1810819;79;21283;-74
2022/09/13 01:16:09;;;;;;;13.83;9.50;;;;;;;12.84;100.00;98862.25;1813254;79;20987;-73
2022/09/13 01:18:36;;;;;;;11.60;9.65;;;;;;;12.85;100.00;98858.47;1798394;79;21030;-73
2022/09/13 01:21:43;;;;;;;10.75;8.20;;;;;;;12.85;100.00;98861.17;1796498;79;21291;-74
2022/09/13 01:24:24;;;;;;;11.10;8.85;;;;;;;12.85;100.00;98859.01;1813521;79;21008;-74
2022/09/13 01:27:17;;;;;;;9.25;8.10;;;;;;;12.82;100.00;98863.06;1813440;79;21264;-73
2022/09/13 01:30:06;;;;;;;13.95;11.73;;;;;;;12.81;100.00;98860.09;1811027;79;21044;-72
2022/09/13 01:32:59;;;;;;;11.00;8.85;;;;;;;12.84;100.00;98861.44;1787384;79;20993;-72
2022/09/13 01:35:46;;;;;;;13.45;10.00;;;;;;;12.83;100.00;98860.63;1789097;79;21019;-75
2022/09/13 01:38:40;;;;;;;12.15;9.80;;;;;;;12.86;100.00;98860.59;1722326;81;21058;-72
2022/09/13 01:41:25;;;;;;;;;;;;;;;12.87;100.00;98861.67;1794953;79;21141;-74
2022/09/13 01:44:03;;;;;;;11.83;10.63;;;;;;;12.91;100.00;98861.35;1741950;81;20140;-77
2022/09/13 01:46:58;;;;;;;14.25;11.25;;;;;;;12.91;100.00;98856.50;1801237;79;21505;-75
2022/09/13 01:49:48;;;;;;;16.15;11.38;;;;;;;12.93;100.00;98857.03;1748729;80;21034;-75
2022/09/13 01:52:21;;;;;;;15.20;10.05;;;;;;;12.96;100.00;98863.20;1750131;80;20991;-75
2022/09/13 01:55:07;;;;;;;;;;;;;;;12.97;100.00;98863.46;1814139;79;21585;-76
2022/09/13 01:57:54;;;;;;;14.38;11.88;;;;;;;13.01;100.00;98865.84;1811914;79;20164;-73
2022/09/13 02:00:21;;;;;;;12.80;10.90;;;;;;;13.06;100.00;98864.45;1802922;79;21074;-73
2022/09/13 02:03:03;;;;;;;13.10;11.73;;;;;;;13.12;100.00;98857.94;1761903;80;21011;-74
2022/09/13 02:05:47;;;;;;;13.13;9.90;;;;;;;13.16;100.00;98863.56;1760872;80;20983;-74
2022/09/13 02:08:50;;;;;;;11.20;10.10;;;;;;;13.13;100.00;98855.51;1768697;79;21100;-75
2022/09/13 02:11:19;;;;;;;14.00;10.58;;;;;;;13.10;100.00;98857.37;1742081;81;21018;-74
2022/09/13 02:14:11;;;;;;;12.88;9.90;;;;;;;13.08;100.00;98861.73;1804862;79;21032;-76
2022/09/13 02:16:47;;;;;;;13.00;11.53;;;;;;;13.07;100.00;98855.27;1796132;79;21050;-75
2022/09/13 02:19:17;;;;;;;13.62;11.33;;;;;;;13.03;100.00;98856.93;1742228;82;21063;-75
2022/09/13 02:21:48;;;;;;;11.48;9.35;;;;;;;13.00;100.00;98861.53;1779924;79;21784;-73
2022/09/13 02:24:22;;;;;;;13.65;9.63;;;;;;;13.00;100.00;98856.94;1779846;80;21027;-74
2022/09/13 02:26:51;;;;;;;13.05;9.48;;;;;;;12.96;100.00;98851.05;1744739;80;20968;-75
2022/09/13 02:29:20;;;;;;;16.57;10.85;;;;;;;12.88;100.00;98849.79;1788867;79;22225;-75
2022/09/13 02:31:57;;;;;;;12.37;9.50;;;;;;;12.89;100.00;98848.70;1750931;81;21084;-73
2022/09/13 02:34:41;;;;;;;9.33;8.30;;;;;;;12.87;100.00;98854.92;1774273;80;21130;-74
2022/09/13 02:37:08;;;;;;;13.93;8.93;;;;;;;12.86;100.00;98847.10;1758471;81;22238;-74
2022/09/13 02:39:46;;;;;;;14.23;12.05;;;;;;;12.92;100.00;98855.41;1774207;80;21102;-74
2022/09/13 02:42:20;;;;;;;8.10;7.25;;;;;;;12.88;100.00;98848.44;1758395;80;21512;-74
2022/09/13 02:44:50;;;;;;;10.75;8.35;;;;;;;12.88;100.00;98847.09;1784982;79;21052;-74
2022/09/13 02:47:28;;;;;;;7.75;7.05;;;;;;;12.85;100.00;98847.67;1738613;81;22510;-75
2022/09/13 02:50:30;;;;;;;9.93;8.83;;;;;;;12.88;100.00;98839.00;1742332;82;20996;-74
2022/09/13 02:53:12;;;;;;;13.48;7.72;;;;;;;12.86;100.00;98845.21;1739317;81;20981;-75
2022/09/13 02:56:04;;;;;;;7.40;6.75;;;;;;;12.81;100.00;98839.86;1785780;80;20967;-77
2022/09/13 02:58:51;;;;;;;8.55;6.85;;;;;;;12.84;100.00;98845.25;1785872;80;21022;-75
2022/09/13 03:01:18;;;;;;;7.97;7.28;;;;;;;12.79;100.00;98838.55;1766680;80;21708;-77
2022/09/13 03:03:44;;;;;;;12.58;7.15;;;;;;;12.73;100.00;98842.37;1791737;80;20994;-76
2022/09/13 03:06:11;;;;;;;7.62;6.92;;;;;;;12.72;100.00;98848.31;1793226;79;20960;-76
2022/09/13 03:08:39;;;;;;;10.25;6.97;;;;;;;12.73;100.00;98846.42;1793270;80;21079;-76
2022/09/13 03:11:47;;;;;;;12.35;6.50;;;;;;;12.78;100.00;98843.14;1793317;80;21510;-76
2022/09/13 03:14:31;;;;;;;7.78;7.08;;;;;;;12.81;100.00;98843.10;1762050;81;22236;-76
2022/09/13 03:17:33;;;;;;;8.18;7.45;;;;;;;12.80;100.00;98847.72;1762025;80;28909;-77
2022/09/13 03:20:23;;;;;;;7.70;7.00;;;;;;;12.84;100.00;98842.55;1780499;80;21488;-77
2022/09/13 03:23:24;;;;;;;8.05;7.22;;;;;;;12.87;100.00;98851.41;1781038;80;21005;-78
2022/09/13 03:26:06;;;;;;;9.18;8.18;;;;;;;12.87;100.00;98850.87;1793201;79;20992;-76
2022/09/13 03:29:02;;;;;;;12.20;7.65;;;;;;;12.88;100.00;98853.03;1793146;79;21070;-74
2022/09/13 03:31:36;;;;;;;8.13;7.28;;;;;;;12.91;100.00;98850.56;1765066;80;21099;-75
2022/09/13 03:34:28;;;;;;;12.47;8.70;;;;;;;12.88;100.00;98850.33;1760761;80;20972;-75
2022/09/13 03:36:59;;;;;;;13.22;9.35;;;;;;;12.84;100.00;98847.41;1731223;82;21011;-75
2022/09/13 03:39:49;;;;;;;13.35;10.78;;;;;;;12.83;100.00;98852.54;1745044;82;21090;-76
2022/09/13 03:42:33;;;;;;;12.82;9.43;;;;;;;12.85;100.00;98850.91;1717963;83;21141;-78
2022/09/13 03:45:01;;;;;;;10.95;9.83;;;;;;;12.86;100.00;98847.10;1750862;81;20947;-77
2022/09/13 03:47:27;;;;;;;13.13;9.68;;;;;;;12.85;100.00;98856.31;1763095;79;20963;-78
2022/09/13 03:49:54;;;;;;;14.93;10.63;;;;;;;12.86;100.00;98855.20;1762485;80;21093;-75
2022/09/13 03:52:20;;;;;;;10.05;8.95;;;;;;;12.86;100.00;98856.01;1762831;81;20982;-76
2022/09/13 03:54:47;;;;;;;15.32;10.48;;;;;;;12.78;100.00;98851.23;1737214;81;21578;-74
2022/09/13 03:57:20;;;;;;;16.45;9.98;;;;;;;12.77;100.00;98857.72;1762604;81;20990;-73
2022/09/13 03:59:55;;;;;;;15.90;11.65;;;;;;;12.75;100.00;98852.36;1757490;80;21609;-73
2022/09/13 04:02:23;;;;;;;11.73;10.60;;;;;;;12.73;100.00;98858.56;1754797;81;21471;-74
2022/09/13 04:04:50;;;;;;;14.43;12.35;;;;;;;12.72;100.00;98859.66;1754836;81;21057;-75
2022/09/13 04:07:19;;;;;;;17.30;11.68;;;;;;;12.72;100.00;98861.81;1761182;81;21220;-74
2022/09/13 04:09:47;;;;;;;12.47;8.85;;;;;;;12.73;100.00;98866.66;1758819;80;20990;-73
2022/09/13 04:12:15;;;;;;;17.75;9.78;;;;;;;12.68;100.00;98859.42;1756464;81;20971;-74
2022/09/13 04:14:46;;;;;;;13.28;9.85;;;;;;;12.71;100.00;98856.14;1755911;81;20946;-77
2022/09/13 04:17:10;;;;;;;13.35;10.15;;;;;;;12.72;100.00;98864.50;1754250;81;21610;-76
2022/09/13 04:19:38;;;;;;;11.97;10.15;;;;;;;12.71;100.00;98865.59;1758690;80;21196;-74
2022/09/13 04:22:04;;;;;;;12.65;10.35;;;;;;;12.67;100.00;98864.01;1762571;81;21491;-74
2022/09/13 04:24:31;;;;;;;14.18;9.65;;;;;;;12.65;100.00;98871.59;1763757;80;21554;-73
2022/09/13 04:26:58;;;;;;;9.75;8.78;;;;;;;12.66;100.00;98870.48;1778703;80;21017;-74
2022/09/13 04:29:25;;;;;;;9.85;8.85;;;;;;;12.66;100.00;98876.45;1768159;80;20979;-75
2022/09/13 04:31:53;;;;;;;13.00;10.00;;;;;;;12.63;100.00;98870.25;1761280;81;21766;-77
2022/09/13 04:34:21;;;;;;;11.60;10.08;;;;;;;12.61;100.00;98873.80;1763405;81;20978;-79
2022/09/13 04:36:49;;;;;;;13.08;8.93;;;;;;;12.60;100.00;98877.03;1763590;81;22204;-75
2022/09/13 04:39:16;;;;;;;10.93;9.65;;;;;;;12.55;100.00;98874.38;1765057;79;21066;-77
2022/09/13 04:41:46;;;;;;;10.70;9.38;;;;;;;12.55;100.00;98872.22;1739648;81;21078;-77
2022/09/13 04:44:14;;;;;;;10.28;9.28;;;;;;;12.48;100.00;98872.53;1744298;82;21931;-74
2022/09/13 04:46:42;;;;;;;12.20;9.45;;;;;;;12.43;100.00;98873.11;1744138;82;21063;-76
2022/09/13 04:49:10;;;;;;;10.43;9.43;;;;;;;12.44;100.00;98874.73;1741307;82;21599;-73
2022/09/13 04:51:36;;;;;;;11.88;10.68;;;;;;;12.44;100.00;98876.89;1763672;81;21026;-74
2022/09/13 04:54:05;;;;;;;12.43;11.05;;;;;;;12.48;100.00;98875.77;1763592;81;20974;-76
2022/09/13 04:56:32;;;;;;;10.90;9.28;;;;;;;12.47;100.00;98884.97;1763509;81;22038;-78
2022/09/13 04:58:58;;;;;;;13.98;10.03;;;;;;;12.48;100.00;98879.81;1741503;81;21581;-75
2022/09/13 05:01:25;;;;;;;15.78;11.10;;;;;;;12.46;100.00;98879.31;1762126;81;21065;-76
2022/09/13 05:03:52;;;;;;;15.65;11.90;;;;;;;12.43;100.00;98880.66;1763157;80;21486;-76
2022/09/13 05:06:20;;;;;;;14.07;12.00;;;;;;;12.42;100.00;98886.36;1763687;80;21013;-76
2022/09/13 05:08:54;;;;;;;16.00;12.33;;;;;;;12.41;100.00;98884.74;1724153;81;21155;-78
2022/09/13 05:11:26;;;;;;;17.23;14.18;;;;;;;12.40;100.00;98889.87;1704066;84;21053;-75
2022/09/13 05:13:57;;;;;;;14.93;13.38;;;;;;;12.35;100.00;98888.02;1733393;82;21002;-78
2022/09/13 05:16:29;;;;;;;32.08;10.35;;;;;;;12.35;100.00;98888.55;1734951;82;21591;-77
2022/09/13 05:18:56;;;;;;;17.02;12.95;;;;;;;12.23;100.00;98889.70;1755959;80;21038;-78
2022/09/13 05:21:26;;;;;;;18.95;14.30;;;;;;;12.22;100.00;98894.05;1710164;82;21043;-78
2022/09/13 05:23:56;;;;;;;20.80;14.60;;;;;;;12.09;100.00;98888.72;1710227;82;21137;-79
2022/09/13 05:26:28;;;;;;;18.17;14.63;;;;;;;12.07;100.00;98884.16;1733372;82;20985;-76
2022/09/13 05:28:54;;;;;;;21.57;14.43;;;;;;;12.07;100.00;98888.20;1744662;81;21089;-79
2022/09/13 05:31:29;;;;;;;17.45;12.70;;;;;;;12.08;100.00;98889.02;1744235;82;21084;-79
2022/09/13 05:34:00;;;;;;;17.48;14.38;;;;;;;12.12;100.00;98892.76;1743103;82;21722;-77
2022/09/13 05:36:27;;;;;;;17.90;15.40;;;;;;;12.10;100.00;98894.91;1752819;81;20988;-77
2022/09/13 05:38:54;;;;;;;16.40;13.48;;;;;;;12.10;100.00;98901.11;1729145;81;21063;-78
2022/09/13 05:41:20;;;;;;;23.05;14.45;;;;;;;12.08;100.00;98896.56;1748081;81;21096;-76
2022/09/13 05:43:47;;;;;;;17.92;13.98;;;;;;;12.06;100.00;98896.02;1731762;81;21079;-76
2022/09/13 05:46:18;;;;;;;18.85;14.13;;;;;;;12.10;100.00;98905.70;1744484;81;21189;-77
2022/09/13 05:48:45;;;;;;;24.45;13.28;;;;;;;12.13;100.00;98907.28;1748803;81;21070;-78
2022/09/13 05:51:20;;;;;;;18.80;12.65;;;;;;;12.16;100.00;98905.94;1754941;81;21029;-78
2022/09/13 05:53:49;;;;;;;18.45;13.10;;;;;;;12.21;100.00;98904.56;1755139;81;21069;-77
2022/09/13 05:56:18;;;;;;;19.00;13.78;;;;;;;12.21;100.00;98914.80;1748775;81;21063;-74
2022/09/13 05:58:50;;;;;;;22.17;12.65;;;;;;;12.23;100.00;98913.97;1754713;81;21326;-74
2022/09/13 06:01:20;;;;;;;15.05;11.93;;;;;;;12.27;100.00;98914.23;1720856;82;20979;-74
2022/09/13 06:03:51;;;;;;;10.93;9.80;;;;;;;12.32;100.00;98913.39;1748630;81;21008;-74
2022/09/13 06:06:18;;;;;;;12.45;11.15;;;;;;;12.31;100.00;98914.47;1741570;80;21070;-75
2022/09/13 06:08:46;;;;;;;12.23;10.88;;;;;;;12.28;100.00;98915.81;1740799;81;21105;-72
2022/09/13 06:11:14;;;;;;;13.90;11.93;;;;;;;12.31;100.00;98919.86;1754015;81;21151;-74
2022/09/13 06:13:44;;;;;;;14.28;10.75;;;;;;;12.31;100.00;98921.21;1753695;81;21056;-74
2022/09/13 06:16:16;;;;;;;15.30;12.00;;;;;;;12.30;100.00;98926.34;1754907;80;21044;-78
2022/09/13 06:18:40;;;;;;;22.20;12.85;;;;;;;12.23;100.00;98918.01;1754625;81;21075;-76
2022/09/13 06:21:16;;;;;;;13.85;11.90;;;;;;;12.17;100.00;98931.27;1754837;81;21027;-77
2022/09/13 06:23:41;;;;;;;17.60;10.78;;;;;;;12.16;100.00;98934.24;1733631;81;22013;-75
2022/09/13 06:26:10;;;;;;;16.12;12.18;;;;;;;12.16;100.00;98931.55;1741192;81;20995;-75
2022/09/13 06:28:37;;;;;;;18.32;12.80;;;;;;;12.14;100.00;98933.70;1740419;82;21123;-74
2022/09/13 06:31:07;;;;;;;17.92;12.35;;;;;;;12.17;100.00;98935.31;1735241;81;21200;-76
2022/09/13 06:33:36;;;;;;;19.82;12.35;;;;;;;12.23;100.00;98927.98;1741788;81;21139;-74
2022/09/13 06:36:05;;;;;;;16.70;13.58;;;;;;;12.29;100.00;98934.97;1743430;81;21094;-77
2022/09/13 06:38:31;;;;;;;12.58;11.03;;;;;;;12.34;100.00;98936.28;1753871;81;20973;-73
2022/09/13 06:41:09;;;;;;;13.30;10.68;;;;;;;12.38;100.00;98945.95;1754977;81;21060;-74
2022/09/13 06:43:37;;;;;;;20.10;10.93;;;;;;;12.40;100.00;98947.30;1742732;81;21067;-76
2022/09/13 06:46:10;;;;;;;15.70;11.78;;;;;;;12.45;100.00;98939.18;1753080;81;21323;-75
2022/09/13 06:48:40;;;;;;;16.12;10.03;;;;;;;12.50;100.00;98943.73;1723740;83;21783;-74
2022/09/13 06:51:10;;;;;;;21.20;12.58;;;;;;;12.49;100.00;98938.88;1732864;82;20978;-74
2022/09/13 06:53:37;;;;;;;20.57;12.23;;;;;;;12.51;100.00;98944.00;1733663;81;21026;-77
2022/09/13 06:56:13;;;;;;;14.18;12.50;;;;;;;12.54;100.00;98944.23;1743070;81;21125;-75
2022/09/13 06:58:41;;;;;;;25.00;13.43;;;;;;;12.59;100.00;98940.16;1730893;82;21619;-79
2022/09/13 07:01:16;;;;;;;15.85;12.18;;;;;;;12.65;100.00;98945.79;1744666;82;21257;-72
2022/09/13 07:03:48;;;;;;;16.82;11.80;;;;;;;12.68;100.00;98944.41;1741693;82;22269;-74
2022/09/13 07:06:23;;;;;;;14.30;10.78;;;;;;;12.57;100.00;98946.36;1743813;82;21057;-73
2022/09/13 07:08:51;;;;;;;15.68;11.53;;;;;;;12.49;100.00;98948.86;1737959;81;21033;-72
2022/09/13 07:11:20;;;;;;;12.50;9.38;;;;;;;12.47;100.00;98953.75;1762901;81;20974;-72
2022/09/13 07:13:52;;;;;;;14.63;11.12;;;;;;;12.49;100.00;98954.25;1762874;81;21241;-71
2022/09/13 07:16:20;;;;;;;12.85;9.88;;;;;;;12.48;100.00;98953.45;1762902;81;20977;-71
2022/09/13 07:18:56;;;;;;;14.87;11.35;;;;;;;12.41;100.00;98958.36;1746361;82;21542;-72
2022/09/13 07:21:22;;;;;;;15.18;11.70;;;;;;;12.41;100.00;98954.86;1744774;82;21474;-74
2022/09/13 07:23:50;;;;;;;12.63;9.83;;;;;;;12.42;100.00;98964.56;1746369;82;21602;-72
2022/09/13 07:26:16;;;;;;;17.62;13.65;;;;;;;12.41;100.00;98967.80;1714086;83;21560;-72
2022/09/13 07:28:45;;;;;;;16.45;11.28;;;;;;;12.42;100.00;98964.56;1732233;81;20962;-71
2022/09/13 07:31:17;;;;;;;12.15;10.55;;;;;;;12.41;100.00;98965.64;1739195;82;20944;-71
2022/09/13 07:33:44;;;;;;;15.13;11.12;;;;;;;12.39;100.00;98965.10;1739456;82;20971;-72
2022/09/13 07:36:12;;;;;;;16.02;11.15;;;;;;;12.37;100.00;98965.94;1762466;80;21103;-73
2022/09/13 07:38:45;;;;;;;13.22;10.32;;;;;;;12.39;100.00;98959.70;1762960;81;21397;-73
2022/09/13 07:41:18;;;;;;;23.87;12.20;;;;;;;12.40;100.00;98957.28;1763134;81;21040;-72
2022/09/13 07:43:46;;;;;;;20.12;13.65;;;;;;;12.36;100.00;98950.30;1763326;81;21108;-74
2022/09/13 07:46:16;;;;;;;16.32;11.88;;;;;;;12.33;100.00;98952.19;1737153;81;21009;-73
2022/09/13 07:48:44;;;;;;;20.68;12.70;;;;;;;12.31;100.00;98960.30;1762979;81;21601;-75
2022/09/13 07:51:19;;;;;;;14.40;11.15;;;;;;;12.18;100.00;98953.65;1763255;81;22258;-73
2022/09/13 07:53:47;;;;;;;25.60;14.07;;;;;;;12.09;100.00;98948.55;1763031;81;21053;-72
2022/09/13 07:56:17;;;;;;;15.72;12.05;;;;;;;12.03;100.00;98947.80;1763270;80;21042;-71
2022/09/13 07:58:45;;;;;;;15.85;12.28;;;;;;;11.99;100.00;98955.37;1762596;81;21467;-72
2022/09/13 08:01:19;;;;;;;19.52;12.95;;;;;;;12.00;100.00;98951.02;1763136;81;21017;-72
2022/09/13 08:04:04;;;;;;;15.03;11.65;;;;;;;11.96;100.00;98950.51;1763070;81;21129;-73
2022/09/13 08:06:32;;;;;;;16.97;10.50;;;;;;;11.93;100.00;98950.53;1762993;80;21240;-71
2022/09/13 08:08:59;;;;;;;18.48;13.72;;;;;;;11.93;100.00;98950.53;1762876;81;20938;-72
2022/09/13 08:11:30;;;;;;;18.90;13.08;;;;;;;11.97;100.00;98954.28;1763037;81;20987;-72
2022/09/13 08:14:00;;;;;;;18.90;10.68;;;;;;;12.02;100.00;98955.61;1737401;81;21045;-72
2022/09/13 08:16:28;;;;;;;15.78;10.82;;;;;;;12.00;100.00;98955.06;1762950;80;21782;-70
2022/09/13 08:18:57;;;;;;;15.08;10.78;;;;;;;11.98;100.00;98953.75;1755256;80;20891;-71
2022/09/13 08:21:25;;;;;;;14.45;11.78;;;;;;;11.98;100.00;98952.40;1745005;82;21078;-74
2022/09/13 08:23:58;;;;;;;15.93;11.57;;;;;;;12.01;100.00;98955.34;1721246;82;21067;-75
2022/09/13 08:26:24;;;;;;;16.12;11.53;;;;;;;12.03;100.00;98950.49;1742654;80;21501;-71
2022/09/13 08:28:58;;;;;;;18.48;11.60;;;;;;;12.06;100.00;98950.47;1736407;81;21114;-68
2022/09/13 08:31:25;;;;;;;13.48;11.00;;;;;;;12.07;100.00;98949.39;1762428;80;21456;-67
2022/09/13 08:33:52;;;;;;;16.73;10.80;;;;;;;12.07;100.00;98946.16;1760708;80;21010;-68
2022/09/13 08:36:19;;;;;;;14.83;10.98;;;;;;;12.04;100.00;98944.53;1744065;82;20961;-67
2022/09/13 08:38:47;;;;;;;10.30;8.68;;;;;;;12.06;100.00;98948.58;1740987;82;21514;-66
2022/09/13 08:41:46;;;;;;;15.43;11.65;;;;;;;12.10;100.00;98943.43;1744020;82;21092;-69
2022/09/13 08:44:33;;;;;;;15.88;12.78;;;;;;;12.06;100.00;98947.23;1735036;82;21170;-67
2022/09/13 08:47:49;;;;;;;15.68;10.95;;;;;;;12.12;100.00;98942.63;1735180;82;20934;-68
2022/09/13 08:50:33;;;;;;;13.55;10.90;;;;;;;12.18;100.00;98942.30;1762953;81;20997;-67
2022/09/13 08:53:25;;;;;;;12.33;11.03;;;;;;;12.24;100.00;98940.38;1743398;82;21010;-70
2022/09/13 08:56:12;;;;;;;13.55;10.95;;;;;;;12.30;100.00;98937.92;1732536;82;21189;-71
2022/09/13 08:59:05;;;;;;;15.35;10.50;;;;;;;12.38;100.00;98943.27;1762422;80;20997;-72
2022/09/13 09:01:56;;;;;;;11.73;10.53;;;;;;;12.42;100.00;98938.38;1677281;82;21037;-72
2022/09/13 09:05:04;;;;;;;19.95;12.05;;;;;;;12.43;100.00;98939.19;1725262;82;21072;-72
2022/09/13 09:07:36;;;;;;;14.83;11.30;;;;;;;12.33;100.00;98929.27;1733081;82;21364;-70
2022/09/13 09:10:21;;;;;;;11.12;10.05;;;;;;;12.18;100.00;98927.47;1744511;82;21099;-71
2022/09/13 09:13:07;;;;;;;11.25;10.00;;;;;;;12.13;100.00;98930.77;1743520;82;22356;-70
2022/09/13 09:15:44;;;;;;;11.65;9.95;;;;;;;12.11;100.00;98936.42;1742968;82;21102;-70
2022/09/13 09:18:32;;;;;;;11.30;10.05;;;;;;;12.13;100.00;98930.20;1739031;82;21526;-68
2022/09/13 09:21:00;;;;;;;13.08;11.00;;;;;;;12.14;100.00;98931.81;1722635;82;21169;-69
2022/09/13 09:23:44;;;;;;;10.45;9.35;;;;;;;12.12;100.00;98927.80;1731773;82;21488;-72
2022/09/13 09:26:22;;;;;;;15.58;10.35;;;;;;;12.12;100.00;98923.75;1724041;81;21292;-67
2022/09/13 09:28:55;;;;;;;13.18;10.23;;;;;;;12.11;100.00;98920.79;1749006;81;21081;-68
2022/09/13 09:31:42;;;;;;;13.25;11.18;;;;;;;12.13;100.00;98926.15;1732169;81;21087;-72
2022/09/13 09:34:31;;;;;;;15.08;9.50;;;;;;;12.14;100.00;98926.42;1749017;81;21100;-69
2022/09/13 09:37:23;;;;;;;15.43;9.28;;;;;;;12.20;100.00;98928.02;1753506;81;21579;-69
2022/09/13 09:39:52;;;;;;;11.95;8.85;;;;;;;12.17;100.00;98930.47;1747032;81;21574;-69
2022/09/13 09:42:26;;;;;;;11.97;8.25;;;;;;;12.18;100.00;98932.86;1745069;81;21044;-72
2022/09/13 09:45:02;;;;;;;10.15;9.15;;;;;;;12.22;100.00;98922.35;1754783;81;21356;-73
2022/09/13 09:47:43;;;;;;;13.58;8.83;;;;;;;12.25;100.00;98931.22;1753930;81;21033;-71
2022/09/13 09:50:19;;;;;;;15.55;9.90;;;;;;;12.31;100.00;98940.08;1729665;81;21811;-70
2022/09/13 09:53:19;;;;;;;11.83;8.08;;;;;;;12.22;100.00;98940.69;1705669;81;21049;-68
2022/09/13 09:55:55;;;;;;;13.70;7.78;;;;;;;12.21;100.00;98935.56;1754627;81;20971;-68
2022/09/13 09:58:40;;;;;;;10.72;7.78;;;;;;;12.30;100.00;98935.77;1754510;81;21546;-70
2022/09/13 10:01:32;;;;;;;8.73;6.72;;;;;;;12.38;100.00;98933.28;1740841;81;21130;-71
2022/09/13 10:04:15;;;;;;;8.38;7.22;;;;;;;12.45;100.00;98929.74;1718900;83;21138;-68
2022/09/13 10:06:42;;;;;;;11.75;8.13;;;;;;;12.55;100.00;98936.95;1733195;82;21094;-68
2022/09/13 10:09:19;;;;;;;10.93;7.50;;;;;;;12.62;100.00;98927.98;1760799;81;21539;-69
2022/09/13 10:11:56;;;;;;;9.63;7.65;;;;;;;12.64;100.00;98931.22;1738104;82;20951;-66
2022/09/13 10:14:40;;;;;;;15.25;6.78;;;;;;;12.65;100.00;98930.95;1734242;82;21119;-72
2022/09/13 10:17:17;;;;;;;12.00;6.17;;;;;;;12.71;100.00;98933.61;1744149;79;20993;-70
2022/09/13 10:20:00;;;;;;;6.92;6.30;;;;;;;12.74;100.00;98932.49;1763281;80;20965;-70
2022/09/13 10:22:31;;;;;;;6.47;5.90;;;;;;;12.82;99.92;98933.23;1763275;81;21523;-73
2022/09/13 10:25:21;;;;;;;7.62;6.90;;;;;;;12.88;99.16;98940.73;1744237;80;21093;-68
2022/09/13 10:27:55;;;;;;;10.20;7.58;;;;;;;12.87;97.60;98942.63;1741718;82;21077;-69
2022/09/13 10:30:55;;;;;;;7.47;5.42;;;;;;;12.89;97.34;98944.52;1743948;82;21174;-66
2022/09/13 10:33:37;;;;;;;8.60;6.78;;;;;;;12.90;96.69;98943.41;1732381;82;21114;-70
2022/09/13 10:36:09;;;;;;;8.68;7.25;;;;;;;12.92;96.54;98941.23;1721903;82;21156;-70
2022/09/13 10:38:40;;;;;;;9.75;6.45;;;;;;;12.96;96.35;98944.17;1740089;80;20928;-69
2022/09/13 10:41:09;;;;;;;10.78;6.33;;;;;;;12.99;95.95;98943.08;1741894;82;21021;-67
2022/09/13 10:43:36;;;;;;;10.98;7.20;;;;;;;12.99;95.41;98949.02;1742167;82;21155;-69
2022/09/13 10:46:07;;;;;;;9.60;5.97;;;;;;;12.97;95.40;98945.78;1742205;82;20969;-69
2022/09/13 10:48:46;;;;;;;10.58;6.42;;;;;;;12.98;95.48;98951.45;1722419;82;21053;-66
2022/09/13 10:51:36;;;;;;;15.50;6.22;;;;;;;12.98;95.27;98943.35;1767455;80;21112;-72
2022/09/13 10:54:19;;;;;;;7.45;6.80;;;;;;;12.99;95.39;98940.92;1762091;79;21155;-71
2022/09/13 10:56:48;;;;;;;14.70;6.23;;;;;;;13.01;95.31;98940.08;1739708;81;21857;-71
2022/09/13 10:59:30;;;;;;;15.15;7.37;;;;;;;12.99;94.78;98941.73;1761331;80;21000;-71
2022/09/13 11:02:24;;;;;;;5.70;4.87;;;;;;;12.98;94.80;98939.30;1760819;80;21040;-73
2022/09/13 11:05:15;;;;;;;6.45;5.33;;;;;;;12.93;94.84;98934.76;1760986;80;21076;-71
2022/09/13 11:08:06;;;;;;;6.12;5.62;;;;;;;12.92;95.19;98937.73;1760497;80;21028;-67
2022/09/13 11:11:11;;;;;;;7.78;6.30;;;;;;;12.87;94.33;98943.17;1702449;81;21172;-71
2022/09/13 11:14:15;;;;;;;8.13;6.87;;;;;;;12.81;94.50;98942.41;1737959;82;20983;-72
2022/09/13 11:17:06;;;;;;;6.78;5.70;;;;;;;12.77;94.58;98933.27;1760280;81;21029;-70
2022/09/13 11:20:06;;;;;;;7.72;7.00;;;;;;;12.77;94.91;98939.20;1722735;83;21096;-68
2022/09/13 11:23:01;;;;;;;11.15;7.05;;;;;;;12.73;95.03;98938.16;1732890;82;22240;-67
2022/09/13 11:25:52;;;;;;;7.10;5.97;;;;;;;12.71;95.58;98939.00;1761158;81;21387;-65
2022/09/13 11:28:53;;;;;;;7.25;5.45;;;;;;;12.69;96.33;98946.02;1742328;82;21558;-68
2022/09/13 11:31:53;;;;;;;11.10;7.22;;;;;;;12.68;96.61;98941.70;1741829;82;21045;-68
2022/09/13 11:34:56;;;;;;;7.42;6.60;;;;;;;12.71;97.23;98948.45;1729897;81;21736;-69
2022/09/13 11:38:00;;;;;;;9.38;7.58;;;;;;;12.72;97.70;98945.45;1695039;83;21548;-67
2022/09/13 11:40:58;;;;;;;11.15;7.90;;;;;;;12.71;98.20;98951.92;1728891;81;21166;-66
2022/09/13 11:43:46;;;;;;;7.67;6.58;;;;;;;12.67;98.66;98948.19;1725356;81;21051;-71
2022/09/13 11:46:51;;;;;;;12.90;7.00;;;;;;;12.63;99.14;98951.99;1722976;81;21680;-66
2022/09/13 11:49:35;;;;;;;9.03;6.28;;;;;;;12.64;99.69;98953.61;1726546;83;21062;-71
2022/09/13 11:52:14;;;;;;;9.18;6.83;;;;;;;12.67;100.00;98954.92;1727789;82;21029;-71
2022/09/13 11:54:51;;;;;;;11.40;6.80;;;;;;;12.65;100.00;98941.73;1726100;81;21547;-69
2022/09/13 11:57:25;;;;;;;10.88;7.60;;;;;;;12.67;100.00;98944.13;1729135;82;20988;-68